createdAt,value
2023-01-28T00:00:04.169Z,82.35
2023-01-28T00:02:32.644Z,82.21
2023-01-28T00:05:02.485Z,82.36
2023-01-28T00:07:31.067Z,82.46
2023-01-28T00:09:59.615Z,82.47
2023-01-28T00:12:29.708Z,82.18
2023-01-28T00:14:58.127Z,82.21
2023-01-28T00:17:26.570Z,82.47
2023-01-28T00:19:55.564Z,82.46
2023-01-28T00:22:25.365Z,81.99
2023-01-28T00:24:53.821Z,82.44
2023-01-28T00:27:22.272Z,82.38
2023-01-28T00:29:50.715Z,82.64
2023-01-28T00:32:19.118Z,82.27
2023-01-28T00:34:47.578Z,82.66
2023-01-28T00:37:15.972Z,82.66
2023-01-28T00:39:45.746Z,82.53
2023-01-28T00:42:14.185Z,82.31
2023-01-28T00:44:42.590Z,82.50
2023-01-28T00:47:11.120Z,82.53
2023-01-28T00:49:39.556Z,82.70
2023-01-28T00:52:08.385Z,82.60
2023-01-28T00:54:37.689Z,82.71
2023-01-28T00:57:08.128Z,82.51
2023-01-28T00:59:36.536Z,82.75
2023-01-28T01:02:12.691Z,82.91
2023-01-28T01:04:41.954Z,82.42
2023-01-28T01:07:10.355Z,82.70
2023-01-28T01:09:38.781Z,82.99
2023-01-28T01:12:09.022Z,82.89
2023-01-28T01:14:37.448Z,83.13
2023-01-28T01:17:05.937Z,82.99
2023-01-28T01:19:34.328Z,82.67
2023-01-28T01:22:02.743Z,83.23
2023-01-28T01:24:34.097Z,83.11
2023-01-28T01:27:02.675Z,83.01
2023-01-28T01:29:33.836Z,83.02
2023-01-28T01:32:02.352Z,83.38
2023-01-28T01:34:30.796Z,83.32
2023-01-28T01:37:00.135Z,83.10
2023-01-28T01:39:28.552Z,83.07
2023-01-28T01:41:57.315Z,83.11
2023-01-28T01:45:02.334Z,83.26
2023-01-28T01:47:42.491Z,82.61
2023-01-28T01:50:17.802Z,82.73
2023-01-28T01:52:48.601Z,82.65
2023-01-28T01:55:22.874Z,82.92
2023-01-28T01:57:57.901Z,82.89
2023-01-28T02:00:28.788Z,82.71
2023-01-28T02:02:58.989Z,82.79
2023-01-28T02:05:27.795Z,82.64
2023-01-28T02:08:20.394Z,82.72
2023-01-28T02:10:51.805Z,82.94
2023-01-28T02:13:22.237Z,82.97
2023-01-28T02:15:52.774Z,82.62
2023-01-28T02:18:21.169Z,82.75
2023-01-28T02:21:20.778Z,82.62
2023-01-28T02:24:15.547Z,82.76
2023-01-28T02:27:15.915Z,82.59
2023-01-28T02:29:51.842Z,82.58
2023-01-28T02:32:25.553Z,82.35
2023-01-28T02:34:59.103Z,82.61
2023-01-28T02:37:35.272Z,82.51
2023-01-28T02:40:10.754Z,82.57
2023-01-28T02:42:41.473Z,82.49
2023-01-28T02:45:21.577Z,82.57
2023-01-28T02:47:57.810Z,82.83
2023-01-28T02:50:34.553Z,82.84
2023-01-28T02:53:35.983Z,82.35
2023-01-28T02:56:13.218Z,82.49
2023-01-28T02:58:48.818Z,82.66
2023-01-28T03:01:27.308Z,82.26
2023-01-28T03:04:00.805Z,82.58
2023-01-28T03:06:35.794Z,82.66
2023-01-28T03:09:26.906Z,82.54
2023-01-28T03:12:15.332Z,82.51
2023-01-28T03:15:04.299Z,82.33
2023-01-28T03:17:57.842Z,82.55
2023-01-28T03:20:47.725Z,82.34
2023-01-28T03:23:40.326Z,82.25
2023-01-28T03:26:30.340Z,82.47
2023-01-28T03:29:23.328Z,82.29
2023-01-28T03:32:10.288Z,82.55
2023-01-28T03:34:58.637Z,82.18
2023-01-28T03:37:28.609Z,82.14
2023-01-28T03:39:58.154Z,82.35
2023-01-28T03:42:26.578Z,82.09
2023-01-28T03:44:54.102Z,82.43
2023-01-28T03:47:24.217Z,82.49
2023-01-28T03:49:55.640Z,82.53
2023-01-28T03:52:25.971Z,82.23
2023-01-28T03:54:54.449Z,81.98
2023-01-28T03:57:25.049Z,82.34
2023-01-28T03:59:54.060Z,81.99
2023-01-28T04:02:23.857Z,82.10
2023-01-28T04:04:53.642Z,82.38
2023-01-28T04:07:22.039Z,82.47
2023-01-28T04:09:50.740Z,82.34
2023-01-28T04:12:19.511Z,82.56
2023-01-28T04:14:47.953Z,82.43
2023-01-28T04:17:16.343Z,82.46
2023-01-28T04:19:44.885Z,82.59
2023-01-28T04:22:14.804Z,82.33
2023-01-28T04:24:43.328Z,82.33
2023-01-28T04:27:11.787Z,82.39
2023-01-28T04:29:40.247Z,82.65
2023-01-28T04:32:11.313Z,82.39
2023-01-28T04:34:40.070Z,82.39
2023-01-28T04:37:08.525Z,82.23
2023-01-28T04:39:38.460Z,81.93
2023-01-28T04:42:06.884Z,82.29
2023-01-28T04:44:35.248Z,82.04
2023-01-28T04:47:03.649Z,82.24
2023-01-28T04:49:32.683Z,82.07
2023-01-28T04:52:01.311Z,81.96
2023-01-28T04:54:29.732Z,81.97
2023-01-28T04:56:59.423Z,82.07
2023-01-28T04:59:27.915Z,82.16
2023-01-28T05:01:56.388Z,82.39
2023-01-28T05:04:25.027Z,82.02
2023-01-28T05:06:53.494Z,82.16
2023-01-28T05:09:22.093Z,81.94
2023-01-28T05:11:50.495Z,82.15
2023-01-28T05:14:20.458Z,82.37
2023-01-28T05:16:48.820Z,82.31
2023-01-28T05:19:17.245Z,82.21
2023-01-28T05:21:45.756Z,82.09
2023-01-28T05:24:14.414Z,82.22
2023-01-28T05:26:43.052Z,82.32
2023-01-28T05:29:11.667Z,82.19
2023-01-28T05:31:41.595Z,82.37
2023-01-28T05:34:09.966Z,82.07
2023-01-28T05:36:38.563Z,82.24
2023-01-28T05:39:12.189Z,82.21
2023-01-28T05:41:40.618Z,82.37
2023-01-28T05:44:08.991Z,82.55
2023-01-28T05:46:37.598Z,82.23
2023-01-28T05:49:09.225Z,82.27
2023-01-28T05:51:39.349Z,82.29
2023-01-28T05:54:07.966Z,82.39
2023-01-28T05:56:36.696Z,82.43
2023-01-28T05:59:05.829Z,82.20
2023-01-28T06:01:34.434Z,82.38
2023-01-28T06:04:02.855Z,82.33
2023-01-28T06:06:32.597Z,82.19
2023-01-28T06:09:00.985Z,82.18
2023-01-28T06:11:29.499Z,82.65
2023-01-28T06:13:57.937Z,82.39
2023-01-28T06:16:26.305Z,82.46
2023-01-28T06:18:54.823Z,82.67
2023-01-28T06:21:23.316Z,82.45
2023-01-28T06:23:53.095Z,82.64
2023-01-28T06:26:21.513Z,82.83
2023-01-28T06:28:49.911Z,82.34
2023-01-28T06:31:18.440Z,82.40
2023-01-28T06:33:46.949Z,82.72
2023-01-28T06:36:15.400Z,82.38
2023-01-28T06:38:43.791Z,82.47
2023-01-28T06:41:13.611Z,82.66
2023-01-28T06:43:41.968Z,82.31
2023-01-28T06:46:10.512Z,82.64
2023-01-28T06:48:38.923Z,82.53
2023-01-28T06:51:07.387Z,82.82
2023-01-28T06:53:36.209Z,82.88
2023-01-28T06:56:05.100Z,82.48
2023-01-28T06:58:35.364Z,82.42
2023-01-28T07:01:03.962Z,82.33
2023-01-28T07:03:32.348Z,82.40
2023-01-28T07:06:02.017Z,82.44
2023-01-28T07:08:30.692Z,82.34
2023-01-28T07:10:59.113Z,82.46
2023-01-28T07:13:27.769Z,82.72
2023-01-28T07:15:57.574Z,82.42
2023-01-28T07:18:26.136Z,82.62
2023-01-28T07:20:54.665Z,82.42
2023-01-28T07:23:24.622Z,82.50
2023-01-28T07:25:52.960Z,82.52
2023-01-28T07:28:22.284Z,82.86
2023-01-28T07:30:53.607Z,83.01
2023-01-28T07:33:23.672Z,82.84
2023-01-28T07:35:52.340Z,82.51
2023-01-28T07:38:20.709Z,82.66
2023-01-28T07:40:49.246Z,82.59
2023-01-28T07:43:19.635Z,82.57
2023-01-28T07:45:48.711Z,82.34
2023-01-28T07:48:17.197Z,83.00
2023-01-28T07:50:48.593Z,82.74
2023-01-28T07:53:17.675Z,82.94
2023-01-28T07:55:46.078Z,82.75
2023-01-28T07:58:14.521Z,82.76
2023-01-28T08:00:43.069Z,82.44
2023-01-28T08:03:15.719Z,82.86
2023-01-28T08:05:48.148Z,82.67
2023-01-28T08:08:17.258Z,82.71
2023-01-28T08:10:46.208Z,82.67
2023-01-28T08:13:16.721Z,82.58
2023-01-28T08:15:45.697Z,82.92
2023-01-28T08:18:16.396Z,83.11
2023-01-28T08:20:46.533Z,82.71
2023-01-28T08:23:18.285Z,82.69
2023-01-28T08:25:47.370Z,83.26
2023-01-28T08:28:17.903Z,82.86
2023-01-28T08:30:47.062Z,82.98
2023-01-28T08:33:17.668Z,82.79
2023-01-28T08:35:46.533Z,83.11
2023-01-28T08:38:17.696Z,83.41
2023-01-28T08:40:46.164Z,83.30
2023-01-28T08:43:14.974Z,83.09
2023-01-28T08:45:43.387Z,83.32
2023-01-28T08:48:15.915Z,83.08
2023-01-28T08:50:44.784Z,83.01
2023-01-28T08:53:14.547Z,83.24
2023-01-28T08:55:45.105Z,82.88
2023-01-28T08:58:15.910Z,83.12
2023-01-28T09:00:45.948Z,83.07
2023-01-28T09:03:14.490Z,83.19
2023-01-28T09:05:43.016Z,83.15
2023-01-28T09:08:13.193Z,82.83
2023-01-28T09:10:42.380Z,82.84
2023-01-28T09:13:15.102Z,82.77
2023-01-28T09:15:44.034Z,82.63
2023-01-28T09:18:12.682Z,82.62
2023-01-28T09:20:41.477Z,82.91
2023-01-28T09:23:11.101Z,83.11
2023-01-28T09:25:39.642Z,83.02
2023-01-28T09:28:08.752Z,82.71
2023-01-28T09:30:39.735Z,82.86
2023-01-28T09:33:08.587Z,82.66
2023-01-28T09:35:37.201Z,82.72
2023-01-28T09:38:05.812Z,82.28
2023-01-28T09:40:38.194Z,82.56
2023-01-28T09:43:41.545Z,82.49
2023-01-28T09:46:14.728Z,82.17
2023-01-28T09:48:46.334Z,81.86
2023-01-28T09:51:29.585Z,81.84
2023-01-28T09:54:01.749Z,81.98
2023-01-28T09:56:33.191Z,81.90
2023-01-28T09:59:19.492Z,82.23
2023-01-28T10:01:57.592Z,82.16
2023-01-28T10:04:40.418Z,82.24
2023-01-28T10:07:20.296Z,82.05
2023-01-28T10:09:55.759Z,81.90
2023-01-28T10:12:58.636Z,82.00
2023-01-28T10:15:50.035Z,81.88
2023-01-28T10:18:26.719Z,81.76
2023-01-28T10:20:59.070Z,81.78
2023-01-28T10:23:33.951Z,81.97
2023-01-28T10:26:12.696Z,81.91
2023-01-28T10:28:41.261Z,82.16
2023-01-28T10:31:14.321Z,82.52
2023-01-28T10:33:44.133Z,82.67
2023-01-28T10:36:12.599Z,82.87
2023-01-28T10:38:41.061Z,82.95
2023-01-28T10:41:25.810Z,82.57
2023-01-28T10:43:54.501Z,82.79
2023-01-28T10:46:28.059Z,82.66
2023-01-28T10:49:02.611Z,82.70
2023-01-28T10:51:36.883Z,82.86
2023-01-28T10:54:21.934Z,82.76
2023-01-28T10:56:54.220Z,82.72
2023-01-28T10:59:27.022Z,82.44
2023-01-28T11:01:58.347Z,82.29
2023-01-28T11:04:30.773Z,82.03
2023-01-28T11:07:02.014Z,82.16
2023-01-28T11:09:32.047Z,82.00
2023-01-28T11:12:11.169Z,82.24
2023-01-28T11:14:39.538Z,81.93
2023-01-28T11:17:18.384Z,81.65
2023-01-28T11:19:48.703Z,81.55
2023-01-28T11:22:25.688Z,81.71
2023-01-28T11:24:54.603Z,81.61
2023-01-28T11:27:30.013Z,81.88
2023-01-28T11:30:03.098Z,81.84
2023-01-28T11:32:32.142Z,82.19
2023-01-28T11:35:01.896Z,81.90
2023-01-28T11:37:30.629Z,81.39
2023-01-28T11:40:03.586Z,81.96
2023-01-28T11:42:32.935Z,81.63
2023-01-28T11:45:01.333Z,81.40
2023-01-28T11:47:42.234Z,81.32
2023-01-28T11:50:26.817Z,81.18
2023-01-28T11:53:17.053Z,81.08
2023-01-28T11:56:01.505Z,80.69
2023-01-28T11:58:43.088Z,80.79
2023-01-28T12:01:16.102Z,80.68
2023-01-28T12:04:13.415Z,80.56
2023-01-28T12:06:59.616Z,80.42
2023-01-28T12:09:35.790Z,80.44
2023-01-28T12:12:18.878Z,80.26
2023-01-28T12:15:09.482Z,80.14
2023-01-28T12:17:49.587Z,80.15
2023-01-28T12:20:27.022Z,79.85
2023-01-28T12:23:14.258Z,79.94
2023-01-28T12:26:00.733Z,79.69
2023-01-28T12:28:45.038Z,79.71
2023-01-28T12:31:40.217Z,79.68
2023-01-28T12:34:47.941Z,79.55
2023-01-28T12:37:24.130Z,79.61
2023-01-28T12:40:16.140Z,79.39
2023-01-28T12:42:51.556Z,79.31
2023-01-28T12:45:24.506Z,79.49
2023-01-28T12:47:58.161Z,79.52
2023-01-28T12:50:30.820Z,79.52
2023-01-28T12:53:04.145Z,79.45
2023-01-28T12:55:42.434Z,79.28
2023-01-28T12:58:20.945Z,78.94
2023-01-28T13:00:52.471Z,79.09
2023-01-28T13:03:30.201Z,79.23
2023-01-28T13:06:02.889Z,79.05
2023-01-28T13:08:31.366Z,79.08
2023-01-28T13:11:03.786Z,79.12
2023-01-28T13:13:34.888Z,79.00
2023-01-28T13:16:05.476Z,78.92
2023-01-28T13:18:45.363Z,78.94
2023-01-28T13:21:32.604Z,78.63
2023-01-28T13:24:20.949Z,78.84
2023-01-28T13:26:52.769Z,78.64
2023-01-28T13:29:33.148Z,78.52
2023-01-28T13:32:03.882Z,78.60
2023-01-28T13:34:36.302Z,78.67
2023-01-28T13:37:09.044Z,78.62
2023-01-28T13:39:50.605Z,78.71
2023-01-28T13:42:29.040Z,78.70
2023-01-28T13:44:58.356Z,78.60
2023-01-28T13:47:34.016Z,78.62
2023-01-28T13:50:05.507Z,78.47
2023-01-28T13:52:37.818Z,78.49
2023-01-28T13:55:33.335Z,78.37
2023-01-28T13:58:51.735Z,78.60
2023-01-28T14:02:00.149Z,78.35
2023-01-28T14:05:12.516Z,78.40
2023-01-28T14:08:27.103Z,78.19
2023-01-28T14:11:12.763Z,78.22
2023-01-28T14:14:06.981Z,78.10
2023-01-28T14:16:42.665Z,78.29
2023-01-28T14:19:14.383Z,78.03
2023-01-28T14:21:42.897Z,78.23
2023-01-28T14:24:18.316Z,78.19
2023-01-28T14:26:54.309Z,77.61
2023-01-28T14:29:38.064Z,77.62
2023-01-28T14:32:12.961Z,77.94
2023-01-28T14:34:43.174Z,77.73
2023-01-28T14:37:15.645Z,77.90
2023-01-28T14:39:47.868Z,78.03
2023-01-28T14:42:22.861Z,77.97
2023-01-28T14:45:02.049Z,77.80
2023-01-28T14:47:45.405Z,77.95
2023-01-28T14:50:32.240Z,77.76
2023-01-28T14:53:23.699Z,77.92
2023-01-28T14:56:00.263Z,78.21
2023-01-28T14:58:33.512Z,78.08
2023-01-28T15:01:03.352Z,78.07
2023-01-28T15:03:33.134Z,78.02
2023-01-28T15:06:13.963Z,78.40
2023-01-28T15:08:42.431Z,78.45
2023-01-28T15:11:16.394Z,78.58
2023-01-28T15:13:47.771Z,78.56
2023-01-28T15:16:22.590Z,78.52
2023-01-28T15:18:51.940Z,78.49
2023-01-28T15:21:21.954Z,78.66
2023-01-28T15:23:53.892Z,78.64
2023-01-28T15:26:24.559Z,78.70
2023-01-28T15:28:54.343Z,78.53
2023-01-28T15:31:28.313Z,78.96
2023-01-28T15:33:58.212Z,79.23
2023-01-28T15:36:27.074Z,79.14
2023-01-28T15:38:55.949Z,78.62
2023-01-28T15:41:28.475Z,78.88
2023-01-28T15:43:57.034Z,78.55
2023-01-28T15:46:27.222Z,78.48
2023-01-28T15:49:00.789Z,78.38
2023-01-28T15:51:32.097Z,78.59
2023-01-28T15:54:04.445Z,78.21
2023-01-28T15:56:32.887Z,78.35
2023-01-28T15:59:19.026Z,78.22
2023-01-28T16:01:48.947Z,78.31
2023-01-28T16:04:25.616Z,78.36
2023-01-28T16:06:56.000Z,78.29
2023-01-28T16:09:27.966Z,78.36
2023-01-28T16:12:03.006Z,78.33
2023-01-28T16:14:41.517Z,78.22
2023-01-28T16:17:12.378Z,78.75
2023-01-28T16:19:46.052Z,78.38
2023-01-28T16:22:21.332Z,78.67
2023-01-28T16:24:52.275Z,78.66
2023-01-28T16:27:23.779Z,78.69
2023-01-28T16:29:52.496Z,78.88
2023-01-28T16:32:35.361Z,78.71
2023-01-28T16:35:05.803Z,78.79
2023-01-28T16:37:34.152Z,79.03
2023-01-28T16:40:02.707Z,78.97
2023-01-28T16:42:41.234Z,79.11
2023-01-28T16:45:17.895Z,79.32
2023-01-28T16:47:47.870Z,79.40
2023-01-28T16:50:18.392Z,79.33
2023-01-28T16:52:49.142Z,79.41
2023-01-28T16:55:19.915Z,79.71
2023-01-28T16:57:50.404Z,79.57
2023-01-28T17:00:20.632Z,79.55
2023-01-28T17:02:57.115Z,79.89
2023-01-28T17:05:26.862Z,79.92
2023-01-28T17:07:59.224Z,79.77
2023-01-28T17:10:27.768Z,79.74
2023-01-28T17:12:56.133Z,79.76
2023-01-28T17:15:24.481Z,80.13
2023-01-28T17:17:53.849Z,79.95
2023-01-28T17:20:23.760Z,79.99
2023-01-28T17:22:52.175Z,79.94
2023-01-28T17:25:20.682Z,80.03
2023-01-28T17:27:50.122Z,79.73
2023-01-28T17:30:20.863Z,79.84
2023-01-28T17:32:49.229Z,80.37
2023-01-28T17:35:17.959Z,80.17
2023-01-28T17:37:48.004Z,80.45
2023-01-28T17:40:16.470Z,80.14
2023-01-28T17:42:44.926Z,79.82
2023-01-28T17:45:13.846Z,79.98
2023-01-28T17:47:42.426Z,80.40
2023-01-28T17:50:12.523Z,80.33
2023-01-28T17:52:41.854Z,80.55
2023-01-28T17:55:12.102Z,80.42
2023-01-28T17:57:40.487Z,80.49
2023-01-28T18:00:11.802Z,80.61
2023-01-28T18:02:40.227Z,80.53
2023-01-28T18:05:09.175Z,80.50
2023-01-28T18:07:37.583Z,80.21
2023-01-28T18:10:07.534Z,80.19
2023-01-28T18:12:37.575Z,80.58
2023-01-28T18:15:07.049Z,80.39
2023-01-28T18:17:35.754Z,80.24
2023-01-28T18:20:06.133Z,80.43
2023-01-28T18:22:35.101Z,80.51
2023-01-28T18:25:03.534Z,80.46
2023-01-28T18:27:31.968Z,80.21
2023-01-28T18:30:01.801Z,80.13
2023-01-28T18:32:30.177Z,80.38
2023-01-28T18:34:58.619Z,80.14
2023-01-28T18:37:26.991Z,80.12
2023-01-28T18:39:55.925Z,80.17
2023-01-28T18:42:24.329Z,79.83
2023-01-28T18:44:52.747Z,80.18
2023-01-28T18:47:23.027Z,79.91
2023-01-28T18:49:54.006Z,80.29
2023-01-28T18:52:22.472Z,80.07
2023-01-28T18:54:50.934Z,80.20
2023-01-28T18:57:20.925Z,80.42
2023-01-28T18:59:49.329Z,80.32
2023-01-28T19:02:17.725Z,80.14
2023-01-28T19:04:47.507Z,80.14
2023-01-28T19:07:15.961Z,80.25
2023-01-28T19:09:44.396Z,80.18
2023-01-28T19:12:12.810Z,80.12
2023-01-28T19:14:41.444Z,80.14
2023-01-28T19:17:09.875Z,80.11
2023-01-28T19:19:38.293Z,79.97
2023-01-28T19:22:08.279Z,80.18
2023-01-28T19:24:36.731Z,80.09
2023-01-28T19:27:05.937Z,79.77
2023-01-28T19:29:34.375Z,80.03
2023-01-28T19:32:04.589Z,80.24
2023-01-28T19:34:33.099Z,80.35
2023-01-28T19:37:01.771Z,79.96
2023-01-28T19:39:32.343Z,80.53
2023-01-28T19:42:02.210Z,80.79
2023-01-28T19:44:30.708Z,80.84
2023-01-28T19:46:59.450Z,80.64
2023-01-28T19:49:27.938Z,80.60
2023-01-28T19:51:56.441Z,80.82
2023-01-28T19:54:25.102Z,80.82
2023-01-28T19:56:54.892Z,81.04
2023-01-28T19:59:23.419Z,80.70
2023-01-28T20:01:51.982Z,80.69
2023-01-28T20:04:20.369Z,80.80
2023-01-28T20:06:50.603Z,80.58
2023-01-28T20:09:20.683Z,80.42
2023-01-28T20:11:51.398Z,80.29
2023-01-28T20:14:21.554Z,80.27
2023-01-28T20:16:50.078Z,80.38
2023-01-28T20:19:19.899Z,80.32
2023-01-28T20:21:51.640Z,80.27
2023-01-28T20:24:20.047Z,80.09
2023-01-28T20:26:48.484Z,80.49
2023-01-28T20:29:20.046Z,80.58
2023-01-28T20:32:05.364Z,80.64
2023-01-28T20:34:39.153Z,80.10
2023-01-28T20:37:10.110Z,80.13
2023-01-28T20:39:38.544Z,80.49
2023-01-28T20:42:09.426Z,80.17
2023-01-28T20:44:37.995Z,80.50
2023-01-28T20:47:07.811Z,80.49
2023-01-28T20:49:36.328Z,80.68
2023-01-28T20:52:05.689Z,80.28
2023-01-28T20:54:34.062Z,80.50
2023-01-28T20:57:02.485Z,80.68
2023-01-28T20:59:32.285Z,80.41
2023-01-28T21:02:01.253Z,80.30
2023-01-28T21:04:31.248Z,80.33
2023-01-28T21:06:59.640Z,80.28
2023-01-28T21:09:28.325Z,80.33
2023-01-28T21:11:56.723Z,80.71
2023-01-28T21:14:25.172Z,80.34
2023-01-28T21:16:53.959Z,80.44
2023-01-28T21:19:22.874Z,80.39
2023-01-28T21:21:52.691Z,80.18
2023-01-28T21:24:21.094Z,80.57
2023-01-28T21:26:49.602Z,80.51
2023-01-28T21:29:18.854Z,80.43
2023-01-28T21:31:47.336Z,80.44
2023-01-28T21:34:16.050Z,80.42
2023-01-28T21:36:44.794Z,80.19
2023-01-28T21:39:14.654Z,80.24
2023-01-28T21:41:43.043Z,80.80
2023-01-28T21:44:12.782Z,80.39
2023-01-28T21:46:44.150Z,80.42
2023-01-28T21:49:12.538Z,80.66
2023-01-28T21:51:46.150Z,80.32
2023-01-28T21:54:18.038Z,80.73
2023-01-28T21:56:47.988Z,80.49
2023-01-28T21:59:30.044Z,80.90
2023-01-28T22:02:00.443Z,80.75
2023-01-28T22:04:31.391Z,80.85
2023-01-28T22:07:00.516Z,80.46
2023-01-28T22:09:31.194Z,80.85
2023-01-28T22:11:59.697Z,80.35
2023-01-28T22:14:28.259Z,80.31
2023-01-28T22:16:56.736Z,80.36
2023-01-28T22:19:25.200Z,80.81
2023-01-28T22:21:53.738Z,80.46
2023-01-28T22:24:24.455Z,80.52
2023-01-28T22:26:55.503Z,80.36
2023-01-28T22:29:25.425Z,80.48
2023-01-28T22:31:54.971Z,80.87
2023-01-28T22:34:23.830Z,80.93
2023-01-28T22:36:52.703Z,81.34
2023-01-28T22:39:21.093Z,81.21
2023-01-28T22:41:49.702Z,80.98
2023-01-28T22:44:20.796Z,81.18
2023-01-28T22:46:49.366Z,80.90
2023-01-28T22:49:17.887Z,81.31
2023-01-28T22:51:46.446Z,81.08
2023-01-28T22:54:15.277Z,80.93
2023-01-28T22:56:43.786Z,80.74
2023-01-28T22:59:12.825Z,80.65
2023-01-28T23:01:42.690Z,81.02
2023-01-28T23:04:11.245Z,80.63
2023-01-28T23:06:39.883Z,80.61
2023-01-28T23:09:08.262Z,80.57
2023-01-28T23:11:36.737Z,80.57
2023-01-28T23:14:23.230Z,80.40
2023-01-28T23:17:10.481Z,80.65
2023-01-28T23:20:05.062Z,80.42
2023-01-28T23:22:57.532Z,80.44
2023-01-28T23:25:26.005Z,80.37
2023-01-28T23:27:54.446Z,80.36
2023-01-28T23:30:25.187Z,80.46
2023-01-28T23:32:57.707Z,80.58
2023-01-28T23:35:26.939Z,80.54
2023-01-28T23:37:56.587Z,80.53
2023-01-28T23:40:28.057Z,80.60
2023-01-28T23:42:56.684Z,80.46
2023-01-28T23:45:25.316Z,80.51
2023-01-28T23:47:55.214Z,80.75
2023-01-28T23:50:24.030Z,80.69
2023-01-28T23:52:52.400Z,80.82
2023-01-28T23:55:20.893Z,80.89
2023-01-28T23:57:49.349Z,80.87
